Time;durP1;ratioP1;P1;durP2;ratioP2;P2;SDS_P1;SDS_P2;PMS_P1;PMS_P2;Temp;Humidity;BMP_temperature;BMP_pressure;BME280_temperature;BME280_humidity;BME280_pressure;Samples;Min_cycle;Max_cycle;Signal;HPM_P1;HPM_P2
2021/05/21 00:02:14;;;;;;;1.87;1.27;;;14.30;34.50;;;;;;10373007;28;20265;-70
2021/05/21 00:07:18;;;;;;;2.00;1.33;;;14.20;34.40;;;;;;10372759;28;20368;-70
2021/05/21 00:12:20;;;;;;;1.97;1.27;;;14.20;34.90;;;;;;10371715;28;20324;-69
2021/05/21 00:17:24;;;;;;;3.73;1.70;;;14.20;35.30;;;;;;10376180;28;20233;-70
2021/05/21 00:22:28;;;;;;;2.00;1.20;;;14.10;34.50;;;;;;10377471;28;20329;-70
2021/05/21 00:27:31;;;;;;;1.50;1.40;;;14.00;34.90;;;;;;10378632;28;20774;-70
2021/05/21 00:32:34;;;;;;;1.40;1.30;;;14.00;34.70;;;;;;10382631;28;20305;-70
2021/05/21 00:37:38;;;;;;;1.40;1.30;;;13.90;34.80;;;;;;10381333;28;20226;-70
2021/05/21 00:42:40;;;;;;;2.03;1.40;;;13.80;35.10;;;;;;10382973;28;20318;-70
2021/05/21 00:47:43;;;;;;;1.47;1.37;;;13.70;34.90;;;;;;10379406;28;20276;-70
2021/05/21 00:52:47;;;;;;;1.50;1.37;;;13.60;35.10;;;;;;10381347;28;20364;-70
2021/05/21 00:57:50;;;;;;;1.37;1.30;;;13.60;35.60;;;;;;10385572;28;20732;-70
2021/05/21 01:02:52;;;;;;;1.67;1.50;;;13.60;35.30;;;;;;10385379;28;20337;-70
2021/05/21 01:07:56;;;;;;;1.53;1.30;;;13.50;35.20;;;;;;10388603;28;20324;-70
2021/05/21 01:12:59;;;;;;;1.27;1.27;;;13.50;35.40;;;;;;10384661;28;20238;-70
2021/05/21 01:18:03;;;;;;;1.30;1.30;;;13.40;35.30;;;;;;10381816;28;20313;-69
2021/05/21 01:23:07;;;;;;;1.40;1.30;;;13.40;35.40;;;;;;10383103;28;20309;-69
2021/05/21 01:28:12;;;;;;;1.47;1.37;;;13.40;35.90;;;;;;10380873;28;20228;-70
2021/05/21 01:33:15;;;;;;;1.93;1.53;;;13.50;35.40;;;;;;10373004;28;20254;-70
2021/05/21 01:38:18;;;;;;;1.60;1.50;;;13.40;35.50;;;;;;10386181;28;20225;-70
2021/05/21 01:43:21;;;;;;;1.40;1.30;;;13.40;36.40;;;;;;10382448;28;20233;-70
2021/05/21 01:48:24;;;;;;;1.50;1.40;;;13.40;35.40;;;;;;10384192;28;20253;-70
2021/05/21 01:53:28;;;;;;;1.40;1.30;;;13.30;35.40;;;;;;10382824;28;20328;-70
2021/05/21 01:58:31;;;;;;;1.40;1.30;;;13.30;35.70;;;;;;10376730;28;20698;-70
2021/05/21 02:03:34;;;;;;;1.63;1.50;;;13.20;35.50;;;;;;10379582;28;20246;-70
2021/05/21 02:08:38;;;;;;;1.50;1.40;;;13.20;35.50;;;;;;10381714;28;20314;-69
2021/05/21 02:13:41;;;;;;;1.40;1.30;;;13.10;36.00;;;;;;10386855;28;20316;-70
2021/05/21 02:18:44;;;;;;;2.43;1.90;;;13.10;35.90;;;;;;10382626;28;20225;-70
2021/05/21 02:23:47;;;;;;;1.40;1.30;;;13.10;36.60;;;;;;10385132;28;20261;-70
2021/05/21 02:28:50;;;;;;;1.50;1.40;;;13.10;36.00;;;;;;10376153;28;20225;-69
2021/05/21 02:33:53;;;;;;;1.83;1.73;;;13.10;35.90;;;;;;10380290;28;20765;-69
2021/05/21 02:38:56;;;;;;;1.30;1.30;;;13.10;36.00;;;;;;10377677;28;20226;-70
2021/05/21 02:43:59;;;;;;;1.50;1.40;;;13.10;36.00;;;;;;10385580;28;20326;-70
2021/05/21 02:49:02;;;;;;;1.90;1.60;;;13.10;35.80;;;;;;10379469;28;20225;-69
2021/05/21 02:54:06;;;;;;;1.53;1.43;;;13.20;35.80;;;;;;10377127;28;20774;-69
2021/05/21 02:59:09;;;;;;;1.90;1.60;;;13.10;35.90;;;;;;10374915;28;20234;-70
2021/05/21 03:04:12;;;;;;;1.20;1.20;;;13.10;35.70;;;;;;10383206;28;20752;-70
2021/05/21 03:09:16;;;;;;;1.40;1.30;;;13.00;35.60;;;;;;10377245;28;20321;-69
2021/05/21 03:14:19;;;;;;;2.63;1.40;;;12.90;35.90;;;;;;10379842;28;20768;-69
2021/05/21 03:19:22;;;;;;;2.90;1.30;;;12.80;36.00;;;;;;10381742;28;20241;-70
2021/05/21 03:24:25;;;;;;;1.50;1.40;;;12.80;36.10;;;;;;10378218;28;20284;-70
2021/05/21 03:29:28;;;;;;;1.13;1.13;;;12.80;36.30;;;;;;10378774;28;20325;-70
2021/05/21 03:34:31;;;;;;;1.73;1.30;;;12.80;36.30;;;;;;10380019;28;20596;-70
2021/05/21 03:39:34;;;;;;;1.30;1.20;;;12.80;36.10;;;;;;10384940;28;20308;-70
2021/05/21 03:44:37;;;;;;;1.70;1.47;;;12.90;36.40;;;;;;10380750;28;20703;-70
2021/05/21 03:49:40;;;;;;;1.50;1.40;;;12.90;36.00;;;;;;10376877;28;20668;-70
2021/05/21 03:54:44;;;;;;;3.67;1.50;;;12.90;36.10;;;;;;10379598;28;20258;-69
2021/05/21 03:59:46;;;;;;;1.23;1.20;;;12.80;36.30;;;;;;10381159;28;20239;-69
2021/05/21 04:04:51;;;;;;;1.50;1.40;;;12.70;36.30;;;;;;10373171;28;20329;-69
2021/05/21 04:09:55;;;;;;;1.33;1.23;;;12.70;36.30;;;;;;10391275;28;20250;-69
2021/05/21 04:14:58;;;;;;;2.73;1.30;;;12.60;36.40;;;;;;10392205;28;20868;-69
2021/05/21 04:20:00;;;;;;;1.50;1.40;;;12.60;36.60;;;;;;10393223;28;20252;-69
2021/05/21 04:25:05;;;;;;;1.37;1.00;;;12.50;36.70;;;;;;10384013;28;20440;-69
2021/05/21 04:30:08;;;;;;;1.20;1.10;;;12.50;37.20;;;;;;10382795;28;20710;-70
2021/05/21 04:35:11;;;;;;;2.00;1.10;;;12.40;37.20;;;;;;10386421;28;20225;-69
2021/05/21 04:40:15;;;;;;;1.23;1.10;;;12.40;37.30;;;;;;10384473;28;20231;-69
2021/05/21 04:45:19;;;;;;;1.30;1.20;;;12.40;37.70;;;;;;10381725;28;20234;-69
2021/05/21 04:50:22;;;;;;;0.80;0.80;;;12.50;37.50;;;;;;10382479;28;20317;-69
2021/05/21 04:55:25;;;;;;;1.10;1.00;;;12.50;37.70;;;;;;10385306;28;20314;-69
2021/05/21 05:00:28;;;;;;;1.10;1.10;;;12.50;37.90;;;;;;10382062;28;20313;-70
2021/05/21 05:05:31;;;;;;;0.90;0.90;;;12.60;38.00;;;;;;10385109;28;20777;-70
2021/05/21 05:10:35;;;;;;;0.83;0.83;;;12.70;38.20;;;;;;10388066;28;20225;-70
2021/05/21 05:15:38;;;;;;;2.53;1.20;;;12.70;38.30;;;;;;10384483;28;20305;-70
2021/05/21 05:20:41;;;;;;;0.90;0.90;;;12.80;38.20;;;;;;10382742;28;20309;-70
2021/05/21 05:25:45;;;;;;;1.13;1.10;;;12.90;38.30;;;;;;10388211;28;20307;-70
2021/05/21 05:30:48;;;;;;;1.97;1.47;;;13.10;38.60;;;;;;10385189;28;20718;-69
2021/05/21 05:35:51;;;;;;;1.80;1.70;;;13.20;38.30;;;;;;10378999;28;20257;-70
2021/05/21 05:40:55;;;;;;;1.60;1.50;;;13.30;38.10;;;;;;10388110;28;20305;-70
2021/05/21 05:45:58;;;;;;;1.50;1.40;;;13.30;38.10;;;;;;10388062;28;20872;-70
2021/05/21 05:51:00;;;;;;;1.20;1.17;;;13.40;38.10;;;;;;10385453;28;20325;-70
2021/05/21 05:56:05;;;;;;;1.40;1.30;;;13.50;38.00;;;;;;10381014;28;20284;-70
2021/05/21 06:01:08;;;;;;;1.50;0.90;;;13.60;38.40;;;;;;10376132;28;20292;-70
2021/05/21 06:06:11;;;;;;;1.00;1.00;;;13.70;38.30;;;;;;10380156;28;20256;-70
2021/05/21 06:11:30;;;;;;;1.37;1.10;;;13.90;38.10;;;;;;10380630;28;20229;-70
2021/05/21 06:16:32;;;;;;;2.80;1.20;;;14.10;38.20;;;;;;10385598;28;20312;-70
2021/05/21 06:21:35;;;;;;;1.20;1.10;;;14.30;38.20;;;;;;10383065;28;20218;-70
2021/05/21 06:26:42;;;;;;;0.90;0.90;;;14.40;38.00;;;;;;10380512;28;20230;-70
2021/05/21 06:31:44;;;;;;;1.20;1.10;;;14.60;37.90;;;;;;10380915;28;20214;-70
2021/05/21 06:36:47;;;;;;;1.23;1.13;;;14.80;38.10;;;;;;10377797;28;20226;-68
2021/05/21 06:41:51;;;;;;;1.03;0.87;;;15.00;38.10;;;;;;10381519;28;20710;-68
2021/05/21 06:46:57;;;;;;;1.07;0.97;;;15.20;37.70;;;;;;10378969;28;20317;-68
2021/05/21 06:51:59;;;;;;;2.70;1.10;;;15.40;38.00;;;;;;10378284;28;20265;-68
2021/05/21 06:57:03;;;;;;;1.07;0.97;;;15.60;38.40;;;;;;10379008;28;20222;-68
2021/05/21 07:02:06;;;;;;;0.93;0.87;;;15.80;37.40;;;;;;10381387;28;20429;-68
2021/05/21 07:07:09;;;;;;;0.90;0.80;;;15.90;37.30;;;;;;10376734;28;20226;-68
2021/05/21 07:12:12;;;;;;;0.83;0.83;;;16.10;37.30;;;;;;10384255;28;20620;-68
2021/05/21 07:17:15;;;;;;;0.87;0.87;;;16.20;37.00;;;;;;10382013;28;20308;-69
2021/05/21 07:22:18;;;;;;;0.97;0.80;;;16.40;37.20;;;;;;10380498;28;20238;-69
2021/05/21 07:27:22;;;;;;;2.00;0.80;;;16.60;36.70;;;;;;10379604;28;20234;-69
2021/05/21 07:32:26;;;;;;;0.80;0.80;;;16.80;36.70;;;;;;10376162;28;20250;-69
2021/05/21 07:37:29;;;;;;;0.80;0.80;;;17.00;36.60;;;;;;10376721;28;20226;-69
2021/05/21 07:42:34;;;;;;;1.03;0.70;;;17.10;36.30;;;;;;10375691;28;20258;-69
2021/05/21 07:47:37;;;;;;;1.00;0.80;;;17.30;36.40;;;;;;10384648;28;20221;-69
2021/05/21 07:52:40;;;;;;;0.90;0.90;;;17.50;35.80;;;;;;10376739;28;20309;-69
2021/05/21 07:57:43;;;;;;;1.03;0.93;;;17.60;36.10;;;;;;10384287;28;20300;-69
2021/05/21 08:02:46;;;;;;;0.80;0.70;;;17.70;34.80;;;;;;10378631;28;20244;-69
2021/05/21 08:07:48;;;;;;;1.00;0.90;;;17.90;35.20;;;;;;10379002;28;20255;-69
2021/05/21 08:12:52;;;;;;;1.00;0.90;;;18.00;35.40;;;;;;10379737;28;20305;-69
2021/05/21 08:17:55;;;;;;;1.77;0.80;;;18.10;35.50;;;;;;10376536;28;20238;-69
2021/05/21 08:22:59;;;;;;;1.67;0.90;;;18.20;34.90;;;;;;10380421;28;20257;-69
2021/05/21 08:28:03;;;;;;;0.80;0.80;;;18.30;35.20;;;;;;10379511;28;20249;-69
2021/05/21 08:33:08;;;;;;;1.47;0.70;;;18.40;35.10;;;;;;10378098;28;20321;-69
2021/05/21 08:38:11;;;;;;;0.80;0.73;;;18.60;34.70;;;;;;10379510;28;20249;-69
2021/05/21 08:43:15;;;;;;;0.60;0.60;;;18.80;34.70;;;;;;10380359;28;20232;-68
2021/05/21 08:48:19;;;;;;;1.43;0.83;;;18.90;34.10;;;;;;10387432;28;20226;-69
2021/05/21 08:53:22;;;;;;;0.93;0.83;;;19.00;34.10;;;;;;10383263;28;20282;-69
2021/05/21 08:58:25;;;;;;;1.53;0.80;;;19.10;34.20;;;;;;10384716;28;20230;-69
2021/05/21 09:03:30;;;;;;;1.23;0.80;;;19.20;34.30;;;;;;10380633;28;20250;-68
2021/05/21 09:08:40;;;;;;;0.80;0.80;;;19.30;34.00;;;;;;10395073;28;20233;-69
2021/05/21 09:13:43;;;;;;;0.80;0.80;;;19.40;33.20;;;;;;10388193;28;20234;-69
2021/05/21 09:19:13;;;;;;;1.23;0.77;;;19.50;33.70;;;;;;10386731;28;20245;-68
2021/05/21 09:24:17;;;;;;;1.40;0.90;;;19.60;33.50;;;;;;10386157;28;20239;-69
2021/05/21 09:29:44;;;;;;;0.77;0.77;;;19.60;33.00;;;;;;10380980;28;20314;-68
2021/05/21 09:34:59;;;;;;;1.00;0.90;;;19.90;32.60;;;;;;10377330;28;20240;-68
2021/05/21 09:40:12;;;;;;;0.93;0.80;;;19.90;31.00;;;;;;10381013;28;20222;-68
2021/05/21 09:45:22;;;;;;;2.40;0.90;;;20.00;30.50;;;;;;10376762;28;20317;-68
2021/05/21 09:50:36;;;;;;;1.00;1.00;;;20.00;31.20;;;;;;10381532;28;20237;-68
2021/05/21 09:55:42;;;;;;;1.87;1.17;;;20.00;30.60;;;;;;10383577;28;20312;-68
2021/05/21 10:01:04;;;;;;;0.83;0.83;;;20.00;30.80;;;;;;10397250;28;20234;-68
2021/05/21 10:06:08;;;;;;;0.70;0.70;;;20.10;30.70;;;;;;10391130;28;20226;-68
2021/05/21 10:11:10;;;;;;;2.80;0.90;;;20.20;31.50;;;;;;10387773;28;20265;-69
2021/05/21 10:16:16;;;;;;;1.67;0.90;;;20.20;31.30;;;;;;10389089;28;20258;-68
2021/05/21 10:21:21;;;;;;;0.90;0.90;;;20.30;30.30;;;;;;10383337;28;20230;-68
2021/05/21 10:26:32;;;;;;;1.40;0.90;;;20.20;30.70;;;;;;10381720;28;20233;-69
2021/05/21 10:31:37;;;;;;;0.90;0.70;;;20.20;30.40;;;;;;10387983;28;20252;-70
2021/05/21 10:36:39;;;;;;;0.70;0.70;;;20.10;31.40;;;;;;10387102;28;20230;-70
2021/05/21 10:41:50;;;;;;;0.70;0.70;;;20.00;30.40;;;;;;10387488;28;20661;-67
2021/05/21 10:47:20;;;;;;;1.27;0.80;;;20.00;29.20;;;;;;10386740;28;20246;-67
2021/05/21 10:52:53;;;;;;;1.30;1.00;;;19.90;30.20;;;;;;10363502;28;20338;-69
2021/05/21 10:57:59;;;;;;;1.43;0.90;;;19.70;30.60;;;;;;10367316;28;20276;-69
2021/05/21 11:03:03;;;;;;;1.03;0.93;;;19.40;31.40;;;;;;10369309;28;20661;-70
2021/05/21 11:08:07;;;;;;;0.80;0.80;;;18.90;31.80;;;;;;10373633;28;20388;-68
2021/05/21 11:13:12;;;;;;;1.00;1.00;;;18.50;32.30;;;;;;10384002;28;20264;-69
2021/05/21 11:18:31;;;;;;;0.90;0.80;;;18.20;33.00;;;;;;10389258;28;20606;-69
2021/05/21 11:23:38;;;;;;;0.87;0.87;;;18.00;34.00;;;;;;10383633;28;20709;-69
2021/05/21 11:28:42;;;;;;;1.10;1.00;;;17.80;34.20;;;;;;10380302;28;20226;-69
2021/05/21 11:33:48;;;;;;;0.97;0.83;;;17.60;34.40;;;;;;10382581;28;20317;-69
2021/05/21 11:38:51;;;;;;;0.87;0.87;;;17.40;34.20;;;;;;10381633;28;20239;-68
2021/05/21 11:43:54;;;;;;;1.00;0.90;;;17.30;34.10;;;;;;10382316;28;20322;-68
2021/05/21 11:48:57;;;;;;;0.60;0.60;;;17.10;34.50;;;;;;10388448;28;20269;-68
2021/05/21 11:54:02;;;;;;;0.90;0.70;;;17.10;35.30;;;;;;10382546;28;20320;-68
2021/05/21 11:59:07;;;;;;;0.60;0.60;;;17.00;35.20;;;;;;10385052;28;20236;-68
2021/05/21 12:04:11;;;;;;;0.60;0.60;;;17.00;35.50;;;;;;10389302;28;20265;-68
2021/05/21 12:09:15;;;;;;;1.57;0.77;;;17.00;35.90;;;;;;10385123;28;20686;-68
2021/05/21 12:14:20;;;;;;;0.70;0.70;;;16.90;35.90;;;;;;10379905;28;20229;-69
2021/05/21 12:19:26;;;;;;;1.13;1.00;;;16.80;36.30;;;;;;10389179;28;20783;-69
2021/05/21 12:24:29;;;;;;;0.80;0.80;;;16.80;36.90;;;;;;10375991;28;20324;-70
2021/05/21 12:29:32;;;;;;;0.77;0.77;;;16.80;36.20;;;;;;10383449;28;20233;-69
2021/05/21 12:34:35;;;;;;;0.70;0.70;;;16.80;36.30;;;;;;10392833;28;20317;-68
2021/05/21 12:39:41;;;;;;;1.10;1.00;;;16.80;36.70;;;;;;10390030;28;20230;-69
2021/05/21 12:44:44;;;;;;;0.93;0.80;;;16.80;37.40;;;;;;10389648;28;20287;-69
2021/05/21 12:49:50;;;;;;;0.80;0.70;;;16.80;37.10;;;;;;10388912;28;20244;-68
2021/05/21 12:54:53;;;;;;;0.73;0.53;;;16.80;37.10;;;;;;10391369;28;20257;-69
2021/05/21 12:59:58;;;;;;;0.77;0.77;;;16.80;36.90;;;;;;10391303;28;21093;-69
2021/05/21 13:05:05;;;;;;;0.70;0.70;;;16.80;37.20;;;;;;10388270;28;20344;-69
2021/05/21 13:10:11;;;;;;;0.87;0.87;;;16.80;38.40;;;;;;10386606;28;20275;-69
2021/05/21 13:15:15;;;;;;;0.87;0.80;;;16.80;37.70;;;;;;10384533;28;20226;-68
2021/05/21 13:20:21;;;;;;;0.60;0.60;;;16.80;37.40;;;;;;10389302;28;20316;-68
2021/05/21 13:25:26;;;;;;;0.50;0.50;;;16.80;37.20;;;;;;10387877;28;21263;-68
2021/05/21 13:30:30;;;;;;;0.70;0.70;;;16.70;37.40;;;;;;10380524;28;20253;-68
2021/05/21 13:35:34;;;;;;;0.80;0.63;;;16.70;37.40;;;;;;10385110;28;20273;-68
2021/05/21 13:40:37;;;;;;;1.10;1.00;;;16.70;37.80;;;;;;10384356;28;20244;-68
2021/05/21 13:45:39;;;;;;;0.70;0.70;;;16.80;37.60;;;;;;10390627;28;20256;-68
2021/05/21 13:50:45;;;;;;;0.70;0.70;;;16.80;37.80;;;;;;10382240;28;20401;-67
2021/05/21 13:55:48;;;;;;;1.20;0.90;;;16.80;37.60;;;;;;10395651;28;20260;-68
2021/05/21 14:00:52;;;;;;;0.80;0.80;;;16.80;37.60;;;;;;10392992;28;20321;-68
2021/05/21 14:05:56;;;;;;;1.77;1.57;;;16.80;37.40;;;;;;10387283;28;20237;-68
2021/05/21 14:10:59;;;;;;;0.80;0.80;;;16.80;37.60;;;;;;10388655;28;20659;-68
2021/05/21 14:16:02;;;;;;;0.60;0.60;;;16.80;37.50;;;;;;10387224;28;20718;-69
2021/05/21 14:21:06;;;;;;;1.00;0.70;;;16.70;37.10;;;;;;10394208;28;20237;-68
2021/05/21 14:26:09;;;;;;;1.37;1.20;;;16.60;37.50;;;;;;10389736;28;20242;-68
2021/05/21 14:31:12;;;;;;;2.10;1.90;;;16.40;37.50;;;;;;10390884;28;20297;-68
2021/05/21 14:36:16;;;;;;;1.20;1.10;;;16.20;37.60;;;;;;10384585;28;20313;-68
2021/05/21 14:41:33;;;;;;;1.73;0.90;;;16.10;38.30;;;;;;10385823;28;20638;-68
2021/05/21 14:46:36;;;;;;;0.90;0.70;;;16.00;38.30;;;;;;10386662;28;20226;-68
2021/05/21 14:51:41;;;;;;;0.93;0.87;;;16.00;38.60;;;;;;10382445;28;20225;-68
2021/05/21 14:56:44;;;;;;;0.90;0.90;;;16.00;39.00;;;;;;10380922;28;20314;-68
2021/05/21 15:01:47;;;;;;;0.80;0.80;;;16.00;38.60;;;;;;10375204;28;20226;-68
2021/05/21 15:06:50;;;;;;;0.70;0.70;;;16.10;38.40;;;;;;10383493;28;20331;-68
2021/05/21 15:11:54;;;;;;;0.80;0.80;;;16.10;38.30;;;;;;10381039;28;20233;-68
2021/05/21 15:17:05;;;;;;;1.00;1.00;;;16.10;38.10;;;;;;10382296;28;20311;-68
2021/05/21 15:27:44;;;;;;;1.20;1.10;;;16.00;38.50;;;;;;10311122;28;20294;-68
2021/05/21 15:32:48;;;;;;;3.10;1.70;;;15.90;38.40;;;;;;10369792;28;20229;-68
2021/05/21 15:37:52;;;;;;;1.90;1.80;;;15.90;38.40;;;;;;10385703;28;20713;-68
2021/05/21 15:48:12;;;;;;;1.87;1.77;;;15.80;38.30;;;;;;10388822;28;20236;-69
2021/05/21 15:53:33;;;;;;;1.30;1.30;;;15.70;38.70;;;;;;10384180;28;20320;-70
2021/05/21 15:58:49;;;;;;;1.33;1.10;;;15.70;38.70;;;;;;10382462;28;20234;-68
2021/05/21 16:03:52;;;;;;;1.80;1.70;;;15.60;38.60;;;;;;10382529;28;20288;-68
2021/05/21 16:08:56;;;;;;;4.00;3.30;;;15.50;38.70;;;;;;10395499;28;20261;-68
2021/05/21 16:14:00;;;;;;;3.20;2.90;;;15.40;38.60;;;;;;10396022;28;20261;-69
2021/05/21 16:19:04;;;;;;;1.70;1.60;;;15.40;38.80;;;;;;10398890;28;20224;-69
2021/05/21 16:24:08;;;;;;;1.20;1.10;;;15.40;39.00;;;;;;10391678;28;20258;-69
2021/05/21 16:29:11;;;;;;;1.43;1.33;;;15.40;38.90;;;;;;10388366;28;20246;-68
2021/05/21 16:34:15;;;;;;;1.70;1.60;;;15.40;38.60;;;;;;10391538;28;20341;-69
2021/05/21 16:39:19;;;;;;;1.40;1.30;;;15.30;38.80;;;;;;10390758;28;20242;-68
2021/05/21 16:44:22;;;;;;;2.13;1.70;;;15.30;39.40;;;;;;10384253;28;20237;-68
2021/05/21 16:49:32;;;;;;;1.47;1.37;;;15.30;39.20;;;;;;10395150;28;20226;-68
2021/05/21 16:54:36;;;;;;;1.20;1.10;;;15.30;39.00;;;;;;10387656;28;20229;-68
2021/05/21 16:59:39;;;;;;;1.80;1.70;;;15.30;39.40;;;;;;10389072;28;20309;-68
2021/05/21 17:04:42;;;;;;;0.90;0.90;;;15.30;39.20;;;;;;10391864;28;20229;-68
2021/05/21 17:09:45;;;;;;;1.30;1.20;;;15.30;39.30;;;;;;10383090;28;20254;-68
2021/05/21 17:14:54;;;;;;;1.40;1.30;;;15.30;39.70;;;;;;10384007;28;20253;-68
2021/05/21 17:20:19;;;;;;;1.67;1.37;;;15.40;39.40;;;;;;10391826;28;20240;-68
2021/05/21 17:46:50;;;;;;;2.43;2.00;;;15.40;39.60;;;;;;10392453;28;20308;-68
2021/05/21 18:08:02;;;;;;;1.70;1.60;;;15.30;39.60;;;;;;10387653;28;20234;-69
2021/05/21 18:13:35;;;;;;;1.47;1.37;;;15.20;39.60;;;;;;10389099;28;20344;-69
2021/05/21 18:19:03;;;;;;;1.83;1.40;;;15.20;39.90;;;;;;10389596;28;20234;-69
2021/05/21 18:24:39;;;;;;;1.67;1.57;;;15.20;39.80;;;;;;10359141;28;20269;-68
2021/05/21 19:01:47;;;;;;;2.37;1.77;;;15.10;40.10;;;;;;10340178;28;20236;-69
2021/05/21 19:17:38;;;;;;;1.93;1.83;;;14.90;40.50;;;;;;10389218;28;20592;-69
2021/05/21 19:22:49;;;;;;;2.10;1.90;;;14.90;41.00;;;;;;10387548;28;20268;-69
2021/05/21 19:27:54;;;;;;;2.37;2.17;;;14.90;40.80;;;;;;10368556;28;20223;-69
2021/05/21 19:33:05;;;;;;;2.03;1.83;;;14.90;40.70;;;;;;10385149;28;20320;-68
2021/05/21 19:43:40;;;;;;;2.30;2.00;;;14.90;40.80;;;;;;10385156;28;20309;-68
2021/05/21 19:49:04;;;;;;;2.37;2.17;;;14.90;40.90;;;;;;10388481;28;20348;-68
2021/05/21 20:15:29;;;;;;;1.70;1.60;;;14.70;41.40;;;;;;10385307;28;20313;-68
2021/05/21 20:20:34;;;;;;;1.77;1.60;;;14.70;41.10;;;;;;10377092;28;20256;-68
2021/05/21 20:25:38;;;;;;;1.80;1.70;;;14.70;41.50;;;;;;10386849;28;20603;-68
2021/05/21 20:31:06;;;;;;;1.67;1.57;;;14.60;41.30;;;;;;10390641;28;20221;-68
2021/05/21 20:36:47;;;;;;;2.20;1.30;;;14.60;41.50;;;;;;10391594;28;20213;-68
2021/05/21 20:42:08;;;;;;;1.50;1.30;;;14.60;42.00;;;;;;10385478;28;20292;-68
2021/05/21 21:08:40;;;;;;;1.13;1.00;;;14.50;41.70;;;;;;10364314;28;20313;-68
2021/05/21 21:13:50;;;;;;;1.00;1.00;;;14.50;42.00;;;;;;10361379;28;20234;-68
2021/05/21 21:18:59;;;;;;;1.53;1.03;;;14.40;41.80;;;;;;10368196;28;20238;-69
2021/05/21 21:47:09;;;;;;;0.80;0.80;;;14.00;42.70;;;;;;10389673;28;20225;-69
2021/05/21 21:51:26;;;;;;;0.80;0.80;;;14.00;42.60;;;;;;10384814;28;20252;-68
2021/05/21 21:56:48;;;;;;;0.80;0.80;;;13.90;42.60;;;;;;10391539;28;20324;-68
2021/05/21 22:01:58;;;;;;;1.00;0.90;;;13.90;43.10;;;;;;10394031;28;20300;-68
2021/05/21 22:07:14;;;;;;;2.47;0.90;;;13.80;43.00;;;;;;10393607;28;20357;-68
2021/05/21 22:12:37;;;;;;;0.73;0.67;;;13.80;43.20;;;;;;10387365;28;20264;-69
2021/05/21 22:28:25;;;;;;;1.37;1.10;;;13.60;43.10;;;;;;10383038;28;20277;-68
2021/05/21 22:33:27;;;;;;;2.20;1.00;;;13.50;43.00;;;;;;10385128;28;20233;-68
2021/05/21 22:38:30;;;;;;;1.90;0.90;;;13.50;43.00;;;;;;10376867;28;20781;-68
2021/05/21 22:43:34;;;;;;;1.03;1.00;;;13.40;42.90;;;;;;10390697;28;20237;-68
2021/05/21 22:48:37;;;;;;;1.70;0.87;;;13.40;42.90;;;;;;10383683;28;20224;-69
2021/05/21 22:53:40;;;;;;;1.10;1.00;;;13.30;42.80;;;;;;10383814;28;20269;-68
2021/05/21 22:58:43;;;;;;;1.73;1.10;;;13.30;42.80;;;;;;10384857;28;20308;-68
2021/05/21 23:03:46;;;;;;;2.17;1.23;;;13.20;43.20;;;;;;10377064;28;20316;-68
2021/05/21 23:08:49;;;;;;;1.63;1.10;;;13.10;43.00;;;;;;10375954;28;20325;-68
2021/05/21 23:13:52;;;;;;;0.93;0.90;;;13.10;43.00;;;;;;10380071;28;20635;-68
2021/05/21 23:18:55;;;;;;;0.83;0.83;;;13.00;43.40;;;;;;10382603;28;20324;-68
2021/05/21 23:23:58;;;;;;;0.77;0.70;;;12.90;43.20;;;;;;10380610;28;20252;-68
2021/05/21 23:29:01;;;;;;;1.50;0.80;;;12.90;43.10;;;;;;10385262;28;20257;-68
2021/05/21 23:34:04;;;;;;;2.00;0.80;;;12.80;43.60;;;;;;10381979;28;20699;-68
2021/05/21 23:39:07;;;;;;;0.63;0.63;;;12.80;43.30;;;;;;10378591;28;20226;-68
2021/05/21 23:44:10;;;;;;;0.70;0.70;;;12.70;43.40;;;;;;10383090;28;20725;-68
2021/05/21 23:49:13;;;;;;;1.03;0.60;;;12.70;43.60;;;;;;10378707;28;20325;-68
2021/05/21 23:54:16;;;;;;;0.70;0.70;;;12.60;43.30;;;;;;10380082;28;20321;-68
2021/05/21 23:59:19;;;;;;;0.70;0.70;;;12.60;43.30;;;;;;10382829;28;20265;-68
